Time;durP1;ratioP1;P1;durP2;ratioP2;P2;SDS_P1;SDS_P2;PMS_P1;PMS_P2;Temp;Humidity;BMP_temperature;BMP_pressure;BME280_temperature;BME280_humidity;BME280_pressure;Samples;Min_cycle;Max_cycle;Signal;HPM_P1;HPM_P2
2022/05/09 00:00:25;;;;;;;;;7.80;7.40;;;;;17.23;33.26;99793.75;5050647;28;8836;-77
2022/05/09 00:03:06;;;;;;;;;8.20;8.20;;;;;17.08;33.98;99787.91;5031848;28;8871;-78
2022/05/09 00:05:34;;;;;;;;;8.00;6.80;;;;;17.10;33.84;99790.53;5017271;28;8851;-79
2022/05/09 00:08:03;;;;;;;;;8.00;6.80;;;;;17.00;34.11;99796.94;5050213;28;8831;-80
2022/05/09 00:10:32;;;;;;;;;5.40;5.40;;;;;17.02;34.42;99788.06;5050612;28;8993;-78
2022/05/09 00:13:01;;;;;;;;;5.00;5.00;;;;;17.04;34.23;99799.44;5050574;28;8844;-78
2022/05/09 00:15:29;;;;;;;;;6.40;5.40;;;;;17.02;33.87;99803.88;5072548;28;8856;-77
2022/05/09 00:17:58;;;;;;;;;4.20;4.00;;;;;17.00;33.99;99803.06;5073876;28;8862;-78
2022/05/09 00:20:28;;;;;;;;;6.20;5.00;;;;;17.01;34.07;99799.50;5071990;28;8868;-78
2022/05/09 00:22:57;;;;;;;;;6.80;6.00;;;;;16.99;34.22;99796.03;5071309;28;8998;-78
2022/05/09 00:25:27;;;;;;;;;6.20;6.00;;;;;16.96;33.88;99796.13;5069656;28;8852;-79
2022/05/09 00:27:56;;;;;;;;;8.00;7.00;;;;;16.92;34.14;99805.00;5052780;28;8854;-78
2022/05/09 00:30:25;;;;;;;;;8.40;8.00;;;;;16.86;34.18;99799.84;5041318;28;8856;-77
2022/05/09 00:32:53;;;;;;;;;6.00;6.00;;;;;16.89;34.11;99800.66;5055150;28;8925;-79
2022/05/09 00:35:23;;;;;;;;;7.20;7.20;;;;;16.92;33.89;99795.31;5071855;28;8832;-79
2022/05/09 00:37:53;;;;;;;;;6.00;5.80;;;;;16.91;33.85;99797.97;5054868;28;8848;-80
2022/05/09 00:40:22;;;;;;;;;5.60;5.60;;;;;16.86;34.06;99802.47;5060075;28;8835;-78
2022/05/09 00:42:52;;;;;;;;;7.20;5.80;;;;;16.78;33.86;99802.63;5052443;28;8851;-78
2022/05/09 00:45:25;;;;;;;;;8.20;8.20;;;;;16.86;33.56;99802.47;5051032;28;8870;-78
2022/05/09 00:47:53;;;;;;;;;6.00;6.00;;;;;16.87;33.30;99798.97;5063571;28;8924;-77
2022/05/09 00:50:25;;;;;;;;;6.20;4.80;;;;;16.83;33.11;99794.66;5071223;28;8918;-78
2022/05/09 00:53:02;;;;;;;;;7.00;7.00;;;;;16.80;32.59;99797.31;5075141;28;8860;-78
2022/05/09 00:55:40;;;;;;;;;7.00;7.00;;;;;16.81;32.63;99799.94;5065143;28;8969;-78
2022/05/09 00:58:13;;;;;;;;;11.00;8.00;;;;;16.80;32.74;99795.53;5035053;28;8839;-78
2022/05/09 01:00:44;;;;;;;;;5.00;5.00;;;;;16.85;32.66;99808.66;5059050;28;8883;-78
2022/05/09 01:03:19;;;;;;;;;5.60;5.60;;;;;16.87;32.22;99807.72;5070894;28;9670;-80
2022/05/09 01:05:51;;;;;;;;;9.40;9.40;;;;;16.88;32.27;99804.19;5034978;28;8843;-81
2022/05/09 01:08:22;;;;;;;;;12.80;7.80;;;;;16.89;32.43;99800.66;5053623;28;8850;-79
2022/05/09 01:10:52;;;;;;;;;7.60;7.00;;;;;16.89;32.04;99799.78;5034732;28;8874;-79
2022/05/09 01:13:25;;;;;;;;;6.40;5.80;;;;;16.91;31.87;99808.53;5067323;28;8842;-78
2022/05/09 01:15:55;;;;;;;;;11.60;9.00;;;;;16.83;31.85;99800.78;5051022;28;9639;-78
2022/05/09 01:18:24;;;;;;;;;9.40;7.40;;;;;16.86;31.47;99799.84;5067966;28;8843;-79
2022/05/09 01:20:52;;;;;;;;;13.00;11.20;;;;;16.88;31.09;99792.78;5052475;28;8858;-79
2022/05/09 01:23:22;;;;;;;;;9.80;8.20;;;;;16.88;31.03;99800.69;5000638;28;8858;-79
2022/05/09 01:25:52;;;;;;;;;11.60;11.60;;;;;16.91;30.38;99797.97;5035610;28;8842;-78
2022/05/09 01:28:21;;;;;;;;;15.40;12.40;;;;;16.95;30.46;99800.50;5053326;28;8866;-78
2022/05/09 01:30:56;;;;;;;;;11.80;10.60;;;;;16.98;30.24;99796.94;5036596;28;8870;-79
2022/05/09 01:33:30;;;;;;;;;10.40;8.80;;;;;17.00;30.02;99797.78;5034524;28;9592;-77
2022/05/09 01:36:03;;;;;;;;;9.40;8.20;;;;;17.01;30.05;99799.50;5067495;28;8989;-78
2022/05/09 01:38:36;;;;;;;;;8.80;8.80;;;;;17.06;29.61;99799.41;5033468;28;8884;-80
2022/05/09 01:41:05;;;;;;;;;7.20;7.20;;;;;17.10;29.74;99795.78;5050500;28;8977;-78
2022/05/09 01:43:37;;;;;;;;;12.40;10.00;;;;;17.12;29.63;99794.84;5050616;28;8823;-78
2022/05/09 01:46:08;;;;;;;;;11.00;9.00;;;;;17.13;29.25;99779.94;5035079;28;8897;-78
2022/05/09 01:51:25;;;;;;;;;9.20;9.20;;;;;16.97;28.48;99782.03;5052436;28;8871;-78
2022/05/09 01:53:57;;;;;;;;;7.00;7.00;;;;;16.93;28.97;99788.28;5030049;28;8828;-80
2022/05/09 01:56:28;;;;;;;;;8.80;7.80;;;;;16.94;29.18;99788.25;5019773;28;8884;-79
2022/05/09 01:58:58;;;;;;;;;10.40;8.20;;;;;16.90;29.18;99785.69;5056036;28;9769;-77
2022/05/09 02:01:30;;;;;;;;;7.60;6.40;;;;;16.96;27.95;99793.50;5050801;28;8882;-78
2022/05/09 02:03:59;;;;;;;;;6.20;6.20;;;;;16.95;29.24;99789.97;5001512;28;8981;-80
2022/05/09 02:06:28;;;;;;;;;9.20;9.00;;;;;16.94;29.28;99792.66;5052487;28;8858;-76
2022/05/09 02:08:59;;;;;;;;;7.00;7.00;;;;;16.99;29.02;99785.50;5052977;28;8945;-79
2022/05/09 02:11:28;;;;;;;;;7.60;7.60;;;;;17.05;28.14;99792.41;5050067;28;8862;-78
2022/05/09 02:13:57;;;;;;;;;7.40;6.40;;;;;17.09;27.75;99796.72;5050194;28;8870;-77
2022/05/09 02:16:25;;;;;;;;;7.20;7.00;;;;;17.07;27.74;99794.13;5033755;28;8866;-80
2022/05/09 02:18:54;;;;;;;;;10.80;10.80;;;;;16.98;29.55;99802.22;5052300;28;8842;-79
2022/05/09 02:21:23;;;;;;;;;7.00;7.00;;;;;16.98;29.08;99798.72;5051217;28;8940;-80
2022/05/09 02:23:52;;;;;;;;;6.20;5.00;;;;;17.00;28.86;99807.47;5053334;28;8863;-78
2022/05/09 02:26:24;;;;;;;;;9.40;9.00;;;;;17.01;28.48;99804.75;5032841;28;8876;-78
2022/05/09 02:28:53;;;;;;;;;6.40;5.80;;;;;17.01;28.41;99802.13;5009340;28;8959;-77
2022/05/09 02:31:23;;;;;;;;;7.60;7.20;;;;;17.00;28.18;99812.72;5009825;28;8875;-78
2022/05/09 02:33:52;;;;;;;;;5.00;5.00;;;;;17.03;28.70;99807.38;4980412;28;8866;-79
2022/05/09 02:36:21;;;;;;;;;7.40;7.40;;;;;17.02;28.39;99805.66;5010476;28;9845;-79
2022/05/09 02:38:49;;;;;;;;;6.80;5.00;;;;;17.04;27.98;99812.63;4995738;28;8871;-79
2022/05/09 02:41:18;;;;;;;;;8.80;8.00;;;;;17.07;28.91;99809.03;4995168;28;8856;-78
2022/05/09 02:43:48;;;;;;;;;7.60;6.00;;;;;17.06;28.41;99809.94;5013510;28;8887;-77
2022/05/09 02:46:17;;;;;;;;;6.80;6.80;;;;;17.08;28.67;99810.78;5013536;28;8894;-78
2022/05/09 02:48:46;;;;;;;;;8.00;8.00;;;;;17.06;28.88;99821.34;4997859;28;8933;-77
2022/05/09 02:51:15;;;;;;;;;9.00;9.00;;;;;17.08;29.72;99809.00;4994706;28;8879;-78
2022/05/09 02:53:49;;;;;;;;;8.20;7.60;;;;;17.07;30.04;99816.94;4975183;28;8993;-78
2022/05/09 02:56:18;;;;;;;;;7.20;7.20;;;;;17.03;29.51;99817.91;4945395;28;8858;-77
2022/05/09 02:58:48;;;;;;;;;6.00;6.00;;;;;16.82;29.19;99819.22;5003425;28;8856;-79
2022/05/09 03:01:17;;;;;;;;;7.60;6.80;;;;;16.81;29.01;99823.63;5051524;28;8834;-79
2022/05/09 03:06:32;;;;;;;;;9.80;7.80;;;;;16.78;29.13;99823.69;5038242;28;8900;-77
2022/05/09 03:09:01;;;;;;;;;27.50;25.50;;;;;16.78;29.65;99823.69;5038777;28;8885;-78
2022/05/09 03:11:30;;;;;;;;;8.40;7.40;;;;;16.54;29.79;99825.94;5019581;28;8862;-77
2022/05/09 03:14:00;;;;;;;;;8.60;8.20;;;;;15.91;31.98;99831.53;5015906;28;8839;-78
2022/05/09 03:16:29;;;;;;;;;5.60;5.60;;;;;15.68;33.05;99832.78;5050773;28;8859;-80
2022/05/09 03:18:58;;;;;;;;;6.60;6.40;;;;;15.50;32.56;99838.31;4986744;28;8823;-78
2022/05/09 03:21:28;;;;;;;;;10.60;9.00;;;;;15.25;32.79;99843.09;5052581;28;8885;-78
2022/05/09 03:23:56;;;;;;;;;10.60;7.80;;;;;15.14;32.78;99846.75;5036445;28;8873;-80
2022/05/09 03:26:25;;;;;;;;;9.60;8.60;;;;;14.98;35.04;99840.84;5036222;28;8886;-79
2022/05/09 03:28:54;;;;;;;;;10.20;9.60;;;;;15.00;35.57;99851.31;5053124;28;8813;-78
2022/05/09 03:31:24;;;;;;;;;9.40;9.40;;;;;15.24;37.36;99854.50;5017723;28;8851;-77
2022/05/09 03:33:53;;;;;;;;;12.40;12.00;;;;;15.38;37.86;99853.38;5036322;28;8899;-77
2022/05/09 03:36:21;;;;;;;;;9.80;9.80;;;;;15.54;37.65;99846.16;5036311;28;8832;-77
2022/05/09 03:38:50;;;;;;;;;10.40;9.80;;;;;15.60;37.92;99851.31;5057567;28;8886;-77
2022/05/09 03:41:20;;;;;;;;;11.40;9.20;;;;;15.65;37.36;99852.97;5068451;28;9002;-79
2022/05/09 03:43:49;;;;;;;;;8.60;8.00;;;;;15.75;36.78;99865.13;5049674;28;8864;-78
2022/05/09 03:46:18;;;;;;;;;10.80;10.20;;;;;15.82;36.32;99860.63;5046126;28;8893;-79
2022/05/09 03:48:48;;;;;;;;;10.60;8.40;;;;;15.90;36.57;99856.97;5069520;28;8871;-77
2022/05/09 03:51:17;;;;;;;;;9.40;8.20;;;;;15.92;36.96;99868.34;5072093;28;8864;-79
2022/05/09 03:53:46;;;;;;;;;10.00;9.00;;;;;15.97;36.81;99863.88;5055845;28;8845;-78
2022/05/09 03:56:15;;;;;;;;;13.00;11.80;;;;;15.70;37.29;99870.41;5040134;28;8861;-79
2022/05/09 03:58:44;;;;;;;;;19.40;19.00;;;;;15.75;37.75;99883.53;5078466;28;8940;-78
2022/05/09 04:01:13;;;;;;;;;10.80;10.40;;;;;15.83;38.03;99881.66;5078309;28;9651;-78
2022/05/09 04:03:42;;;;;;;;;12.80;11.80;;;;;15.90;37.87;99879.78;5077387;28;8869;-79
2022/05/09 04:06:12;;;;;;;;;11.80;11.60;;;;;15.96;37.59;99883.16;5060114;28;8849;-78
2022/05/09 04:08:41;;;;;;;;;11.20;10.60;;;;;16.08;37.30;99873.31;5090302;28;8842;-79
2022/05/09 04:11:10;;;;;;;;;12.40;12.20;;;;;16.18;37.37;99882.78;5074121;28;8861;-80
2022/05/09 04:13:39;;;;;;;;;11.80;10.40;;;;;16.17;37.27;99881.06;5075396;28;9563;-78
2022/05/09 04:18:59;;;;;;;;;15.20;13.60;;;;;16.39;36.11;99892.06;5059655;28;8892;-78
2022/05/09 04:21:29;;;;;;;;;13.60;13.60;;;;;16.36;36.63;99890.34;5060581;28;8868;-80
2022/05/09 04:23:58;;;;;;;;;8.60;8.60;;;;;16.49;36.70;99887.50;5059183;28;8944;-79
2022/05/09 04:26:29;;;;;;;;;9.40;7.60;;;;;16.59;35.77;99888.19;5061107;28;8961;-80
2022/05/09 04:28:58;;;;;;;;;70.50;54.00;;;;;16.73;35.54;99894.06;5056928;28;8855;-78
2022/05/09 04:31:28;;;;;;;;;37.25;34.00;;;;;16.85;34.27;99887.69;5038451;28;9502;-80
2022/05/09 04:33:58;;;;;;;;;14.20;13.00;;;;;16.87;34.56;99894.66;5055857;28;8855;-78
2022/05/09 04:36:29;;;;;;;;;12.00;11.80;;;;;16.94;33.96;99898.03;5052494;28;8834;-80
2022/05/09 04:38:58;;;;;;;;;9.60;9.60;;;;;17.05;34.16;99897.78;5036968;28;8850;-79
2022/05/09 04:41:26;;;;;;;;;10.40;10.00;;;;;17.19;34.27;99898.38;5034636;28;8890;-79
2022/05/09 04:43:55;;;;;;;;;13.00;11.80;;;;;17.34;34.14;99905.06;5040127;28;8843;-79
2022/05/09 04:46:23;;;;;;;;;12.00;11.20;;;;;17.48;33.28;99907.38;5038168;28;9676;-78
2022/05/09 04:48:52;;;;;;;;;9.00;7.60;;;;;17.61;33.40;99902.69;4987916;28;8851;-79
2022/05/09 04:51:22;;;;;;;;;12.40;11.00;;;;;17.74;32.99;99907.63;4997448;28;8844;-80
2022/05/09 04:53:52;;;;;;;;;11.00;10.00;;;;;17.90;33.35;99907.28;5012401;28;8898;-77
2022/05/09 04:56:21;;;;;;;;;12.00;12.00;;;;;18.03;33.17;99914.00;4979364;28;9006;-80
2022/05/09 04:58:49;;;;;;;;;9.60;9.00;;;;;18.17;33.05;99908.38;4963558;28;8895;-78
2022/05/09 05:01:18;;;;;;;;;13.40;12.40;;;;;18.33;33.18;99906.19;5013127;28;8832;-80
2022/05/09 05:03:47;;;;;;;;;12.60;11.80;;;;;18.45;32.35;99915.56;4999212;28;8836;-79
2022/05/09 05:06:16;;;;;;;;;14.00;10.60;;;;;18.55;32.16;99914.41;5015378;28;8851;-79
2022/05/09 05:08:44;;;;;;;;;9.40;8.00;;;;;18.53;30.87;99916.22;5032735;28;8869;-79
2022/05/09 05:11:14;;;;;;;;;7.00;7.00;;;;;18.66;30.33;99919.41;5034651;28;8987;-79
2022/05/09 05:13:43;;;;;;;;;11.00;11.00;;;;;18.78;30.02;99918.19;5001476;28;8826;-78
2022/05/09 05:16:11;;;;;;;;;10.20;9.80;;;;;18.91;29.88;99919.59;5015963;28;8838;-78
2022/05/09 05:18:40;;;;;;;;;10.80;10.80;;;;;19.03;29.39;99921.00;5011068;28;9038;-80
2022/05/09 05:21:10;;;;;;;;;12.60;10.60;;;;;19.00;29.08;99921.97;4996333;28;8836;-80
2022/05/09 05:23:40;;;;;;;;;16.00;13.40;;;;;19.03;29.17;99926.31;5013977;28;8876;-80
2022/05/09 05:26:08;;;;;;;;;11.80;11.60;;;;;18.99;29.34;99922.03;4997183;28;8885;-80
2022/05/09 05:28:38;;;;;;;;;17.60;15.80;;;;;19.05;30.21;99925.38;4995469;28;9542;-79
2022/05/09 05:31:14;;;;;;;;;13.80;11.60;;;;;19.23;29.67;99925.72;5052999;28;8857;-79
2022/05/09 05:33:44;;;;;;;;;11.60;11.00;;;;;19.42;29.73;99926.88;5055490;28;8834;-80
2022/05/09 05:36:14;;;;;;;;;10.60;10.60;;;;;19.61;29.45;99931.63;5057248;28;8843;-81
2022/05/09 05:38:43;;;;;;;;;12.60;12.60;;;;;19.77;30.06;99922.31;5051528;28;8848;-79
2022/05/09 05:41:12;;;;;;;;;13.60;12.20;;;;;19.84;29.07;99925.63;5048759;28;8843;-79
2022/05/09 05:43:42;;;;;;;;;19.20;14.20;;;;;19.82;29.75;99928.31;5032802;28;8859;-79
2022/05/09 05:46:12;;;;;;;;;16.20;14.00;;;;;19.98;29.92;99935.75;5004542;28;8866;-79
2022/05/09 05:48:41;;;;;;;;;18.20;14.00;;;;;20.15;29.12;99933.41;5054250;28;8834;-82
2022/05/09 05:51:11;;;;;;;;;15.00;15.00;;;;;20.32;28.72;99935.50;5021065;28;8840;-77
2022/05/09 05:53:39;;;;;;;;;16.40;15.40;;;;;20.46;28.07;99927.06;5071500;28;8868;-78
2022/05/09 05:56:09;;;;;;;;;17.60;15.80;;;;;20.62;27.81;99936.22;5022546;28;8883;-78
2022/05/09 05:58:37;;;;;;;;;16.40;13.60;;;;;20.72;26.86;99938.53;5014491;28;8849;-79
2022/05/09 06:01:07;;;;;;;;;4.20;4.20;;;;;20.81;26.51;99944.38;5030408;28;8862;-80
2022/05/09 06:03:36;;;;;;;;;10.00;9.40;;;;;20.87;26.07;99945.06;5014244;28;8838;-79
2022/05/09 06:06:05;;;;;;;;;11.20;11.00;;;;;20.96;25.42;99942.97;5030911;28;8874;-80
2022/05/09 06:08:38;;;;;;;;;11.00;11.00;;;;;21.00;24.95;99946.34;4990974;28;8931;-80
2022/05/09 06:11:07;;;;;;;;;8.00;8.00;;;;;21.10;24.99;99952.19;5024820;28;8853;-79
2022/05/09 06:13:36;;;;;;;;;11.60;10.60;;;;;21.15;24.88;99948.44;4998756;28;8868;-78
2022/05/09 06:16:05;;;;;;;;;11.60;10.60;;;;;21.26;25.02;99955.13;5015201;28;8971;-79
2022/05/09 06:18:41;;;;;;;;;12.00;12.00;;;;;21.41;25.30;99957.19;5016289;28;8836;-80
2022/05/09 06:21:10;;;;;;;;;10.20;9.80;;;;;21.55;25.09;99961.97;5033284;28;8855;-82
2022/05/09 06:23:38;;;;;;;;;13.20;11.00;;;;;21.67;24.90;99961.50;5000743;28;8869;-69
2022/05/09 06:26:07;;;;;;;;;12.60;11.00;;;;;21.82;25.19;99957.38;5026415;28;8822;-70
2022/05/09 06:28:36;;;;;;;;;13.20;12.00;;;;;21.94;24.46;99961.31;5041599;28;8851;-68
2022/05/09 06:31:05;;;;;;;;;7.80;7.80;;;;;21.94;22.92;99953.34;5046262;28;9017;-68
2022/05/09 06:33:34;;;;;;;;;11.60;11.60;;;;;22.04;24.23;99959.13;4997812;28;8938;-70
2022/05/09 06:36:05;;;;;;;;;18.40;16.20;;;;;22.16;24.86;99958.66;5045117;28;8820;-70
2022/05/09 06:38:34;;;;;;;;;14.80;13.80;;;;;22.12;25.15;99955.25;5066018;28;8967;-67
2022/05/09 06:41:02;;;;;;;;;17.40;16.00;;;;;22.29;25.47;99967.88;5050141;28;8835;-68
2022/05/09 06:43:32;;;;;;;;;18.60;16.20;;;;;22.41;25.20;99963.81;5065735;28;8878;-71
2022/05/09 06:46:01;;;;;;;;;14.60;14.60;;;;;22.50;25.26;99963.41;5054653;28;8870;-68
2022/05/09 06:48:30;;;;;;;;;19.00;17.80;;;;;22.64;25.93;99964.63;5047932;28;8947;-70
2022/05/09 06:50:58;;;;;;;;;15.80;12.60;;;;;22.69;26.33;99958.16;5048545;28;8850;-79
2022/05/09 06:53:28;;;;;;;;;19.00;16.20;;;;;22.72;26.27;99959.81;5051466;28;8858;-79
2022/05/09 06:56:00;;;;;;;;;17.00;15.80;;;;;22.89;26.16;99959.06;5055543;28;8954;-77
2022/05/09 06:58:28;;;;;;;;;15.80;15.80;;;;;22.99;25.77;99963.06;5066328;28;9581;-76
2022/05/09 07:00:57;;;;;;;;;16.20;16.00;;;;;22.98;24.72;99959.50;5020614;28;8900;-77
2022/05/09 07:03:27;;;;;;;;;18.20;17.00;;;;;22.93;25.31;99965.97;5089384;28;8898;-79
2022/05/09 07:05:56;;;;;;;;;13.20;11.80;;;;;22.78;25.69;99962.22;5076119;28;8856;-80
2022/05/09 07:08:32;;;;;;;;;22.80;19.80;;;;;22.89;26.26;99969.69;5055934;28;8852;-77
2022/05/09 07:11:03;;;;;;;;;17.60;16.60;;;;;23.01;26.51;99969.16;5071072;28;8878;-79
2022/05/09 07:13:42;;;;;;;;;16.00;16.00;;;;;23.02;25.63;99970.03;5072179;28;8864;-78
2022/05/09 07:16:11;;;;;;;;;16.60;16.60;;;;;23.16;25.55;99965.84;5055463;28;8887;-79
2022/05/09 07:18:43;;;;;;;;;20.20;17.40;;;;;23.33;26.07;99965.06;5057148;28;8933;-80
2022/05/09 07:21:12;;;;;;;;;15.80;15.80;;;;;23.49;25.73;99972.31;5053262;28;8839;-80
2022/05/09 07:23:41;;;;;;;;;17.40;15.60;;;;;23.62;25.51;99969.94;5073539;28;8864;-80
2022/05/09 07:26:10;;;;;;;;;20.60;18.20;;;;;23.61;25.41;99969.09;5066188;28;8848;-77
2022/05/09 07:28:40;;;;;;;;;16.20;15.80;;;;;23.66;25.69;99974.19;5070277;28;9766;-80
2022/05/09 07:31:10;;;;;;;;;14.20;14.20;;;;;23.65;25.54;99975.13;5070947;28;8929;-78
2022/05/09 07:33:38;;;;;;;;;16.00;15.20;;;;;23.77;25.10;99969.22;5052399;28;8856;-81
2022/05/09 07:36:08;;;;;;;;;16.20;15.00;;;;;23.89;25.64;99971.31;5069285;28;9642;-81
2022/05/09 07:38:36;;;;;;;;;16.40;16.20;;;;;24.04;25.63;99968.81;5053307;28;8952;-78
2022/05/09 07:41:05;;;;;;;;;19.60;15.20;;;;;24.08;25.86;99965.94;5056622;28;8990;-80
2022/05/09 07:43:35;;;;;;;;;15.60;14.60;;;;;24.19;25.39;99970.72;5072602;28;8852;-79
2022/05/09 07:46:10;;;;;;;;;10.20;10.20;;;;;24.31;25.46;99970.13;5085585;28;8876;-78
2022/05/09 07:48:59;;;;;;;;;18.20;17.20;;;;;24.32;25.04;99971.81;5063081;28;9719;-78
2022/05/09 07:51:27;;;;;;;;;15.80;15.80;;;;;24.38;25.67;99977.78;5024389;28;9009;-80
2022/05/09 07:53:56;;;;;;;;;17.20;16.40;;;;;24.47;25.38;99978.19;5066959;28;8884;-79
2022/05/09 07:56:25;;;;;;;;;14.20;13.60;;;;;24.47;24.97;99977.31;5075559;28;8928;-78
2022/05/09 07:58:54;;;;;;;;;19.40;16.80;;;;;24.54;24.81;99980.56;5072299;28;8872;-80
2022/05/09 08:01:23;;;;;;;;;19.20;18.20;;;;;24.57;25.09;99983.06;5040519;28;8851;-78
2022/05/09 08:03:52;;;;;;;;;15.80;15.40;;;;;24.30;25.39;99980.84;5037696;28;8960;-78
2022/05/09 08:06:20;;;;;;;;;15.20;15.20;;;;;23.94;25.32;99987.91;5073432;28;8882;-81
2022/05/09 08:08:50;;;;;;;;;6.80;4.60;;;;;24.16;25.41;99986.00;5084700;28;8872;-72
2022/05/09 08:11:19;;;;;;;;;10.20;9.80;;;;;24.35;24.83;99984.16;5067591;28;8848;-70
2022/05/09 08:13:48;;;;;;;;;12.20;11.60;;;;;24.43;24.97;99981.94;5068726;28;8927;-77
2022/05/09 08:16:19;;;;;;;;;17.40;14.60;;;;;24.45;24.70;99992.53;5028685;28;8880;-75
2022/05/09 08:18:48;;;;;;;;;16.60;16.20;;;;;24.32;24.71;99990.47;5025644;28;8835;-74
2022/05/09 08:21:17;;;;;;;;;14.80;13.40;;;;;24.01;24.96;99988.50;5051844;28;8931;-75
2022/05/09 08:23:46;;;;;;;;;15.60;13.00;;;;;23.87;25.02;99988.28;5063426;28;8902;-73
2022/05/09 08:26:15;;;;;;;;;18.40;16.60;;;;;23.47;25.34;99996.34;5068928;28;8882;-75
2022/05/09 08:28:45;;;;;;;;;15.20;15.20;;;;;23.69;25.46;99993.53;5070218;28;8914;-75
2022/05/09 08:31:18;;;;;;;;;12.20;12.20;;;;;23.90;25.62;99989.00;5058573;28;8945;-74
2022/05/09 08:33:51;;;;;;;;;15.80;15.20;;;;;24.11;25.19;99989.75;5068847;28;8852;-74
2022/05/09 08:39:04;;;;;;;;;17.20;16.20;;;;;24.57;24.08;99991.09;5055970;28;8836;-74
2022/05/09 08:41:48;;;;;;;;;10.00;9.20;;;;;24.67;23.27;99987.00;5067097;28;9601;-75
2022/05/09 08:44:53;;;;;;;;;9.80;9.80;;;;;24.82;23.42;99983.53;5067318;28;8844;-74
2022/05/09 08:47:41;;;;;;;;;15.80;14.00;;;;;24.31;24.42;99990.59;4968593;28;8893;-75
2022/05/09 08:50:19;;;;;;;;;12.00;10.80;;;;;24.50;24.86;99994.03;4968223;28;8870;-76
2022/05/09 08:52:59;;;;;;;;;16.60;14.20;;;;;24.67;24.24;99995.00;4968534;28;8847;-75
2022/05/09 08:55:33;;;;;;;;;15.80;11.80;;;;;24.72;24.63;99987.63;4952167;28;8875;-75
2022/05/09 08:58:13;;;;;;;;;16.00;15.40;;;;;24.81;24.84;99988.94;4968052;28;8855;-74
2022/05/09 09:00:41;;;;;;;;;16.60;15.40;;;;;24.91;25.00;99990.19;4967891;28;8881;-75
2022/05/09 09:03:20;;;;;;;;;14.20;13.80;;;;;24.87;25.10;99984.13;4968173;28;9635;-73
2022/05/09 09:05:53;;;;;;;;;4.20;3.60;;;;;24.88;24.97;99998.38;4968573;28;8981;-74
2022/05/09 09:08:30;;;;;;;;;14.00;11.60;;;;;24.96;25.23;99989.94;4967455;28;9082;-76
2022/05/09 09:11:10;;;;;;;;;15.20;13.20;;;;;25.08;25.49;99997.28;4942147;28;8849;-76
2022/05/09 09:14:04;;;;;;;;;9.80;9.60;;;;;25.24;24.95;99992.03;4968216;28;9591;-77
2022/05/09 09:16:55;;;;;;;;;14.40;14.00;;;;;24.96;25.26;99998.81;4975959;28;8949;-76
2022/05/09 09:19:46;;;;;;;;;15.80;14.80;;;;;24.57;26.54;99993.75;4987841;28;8850;-76
2022/05/09 09:22:28;;;;;;;;;13.80;13.40;;;;;24.79;27.20;99994.34;5049173;28;8856;-76
2022/05/09 09:25:20;;;;;;;;;13.00;12.80;;;;;24.89;26.87;99992.91;5068224;28;8864;-75
2022/05/09 09:27:53;;;;;;;;;12.40;12.40;;;;;24.94;26.35;99994.50;5068502;28;8864;-75
2022/05/09 09:30:25;;;;;;;;;14.20;13.00;;;;;24.95;25.34;99991.72;5060495;28;8843;-75
2022/05/09 09:32:58;;;;;;;;;14.00;14.00;;;;;24.97;25.61;99995.22;5033636;28;8864;-75
2022/05/09 09:35:35;;;;;;;;;15.60;14.40;;;;;24.80;25.73;100005.88;5067679;28;9753;-78
2022/05/09 09:38:18;;;;;;;;;13.80;12.80;;;;;24.86;25.48;99994.91;5057478;28;8975;-76
2022/05/09 09:40:47;;;;;;;;;15.00;13.40;;;;;24.75;25.63;99998.13;5069880;28;9759;-77
2022/05/09 09:43:20;;;;;;;;;14.80;12.60;;;;;24.17;26.50;100001.06;5069887;28;8875;-77
2022/05/09 09:46:03;;;;;;;;;16.60;14.40;;;;;24.03;26.61;99993.75;5051389;28;8914;-76
2022/05/09 09:48:32;;;;;;;;;11.80;11.20;;;;;23.40;26.38;99996.72;5069411;28;8848;-73
2022/05/09 09:51:04;;;;;;;;;15.20;13.80;;;;;23.61;26.54;99994.84;5065600;28;9643;-75
2022/05/09 09:53:39;;;;;;;;;14.40;14.40;;;;;23.46;26.86;99991.97;5048700;28;8855;-76
2022/05/09 09:56:27;;;;;;;;;13.60;13.60;;;;;22.91;26.52;99991.78;5061108;28;8890;-74
2022/05/09 09:58:59;;;;;;;;;11.00;9.80;;;;;23.41;26.72;99995.78;5049939;28;8842;-77
2022/05/09 10:01:32;;;;;;;;;11.80;11.80;;;;;23.27;26.24;99994.63;5054678;28;8820;-75
2022/05/09 10:04:09;;;;;;;;;12.60;12.60;;;;;22.89;26.10;99993.63;5071998;28;9625;-78
2022/05/09 10:06:59;;;;;;;;;10.20;10.20;;;;;23.05;25.62;99989.41;5071183;28;9625;-79
2022/05/09 10:09:33;;;;;;;;;9.20;9.20;;;;;22.88;25.75;99995.44;5071647;28;8932;-80
2022/05/09 10:12:16;;;;;;;;;14.20;12.60;;;;;23.32;25.99;99986.41;5059473;28;8957;-81
2022/05/09 10:14:46;;;;;;;;;14.60;12.60;;;;;23.44;25.56;99987.63;5051495;28;8872;-77
2022/05/09 10:17:20;;;;;;;;;5.20;4.80;;;;;22.93;25.06;99992.56;5068464;28;8955;-72
2022/05/09 10:19:50;;;;;;;;;12.20;11.00;;;;;23.15;24.49;99985.38;5068140;28;8828;-71
2022/05/09 10:25:18;;;;;;;;;14.00;14.00;;;;;22.81;25.38;99982.50;5064871;28;8841;-71
2022/05/09 10:27:48;;;;;;;;;8.00;8.00;;;;;23.23;24.68;99977.09;5058966;28;8969;-75
2022/05/09 10:30:31;;;;;;;;;10.20;9.00;;;;;22.84;24.81;99977.91;5055899;28;8840;-75
2022/05/09 10:33:08;;;;;;;;;9.60;9.60;;;;;22.65;25.52;99972.53;5002673;28;8925;-77
2022/05/09 10:35:42;;;;;;;;;9.60;9.60;;;;;22.68;24.72;99982.16;5059895;28;8885;-79
2022/05/09 10:38:16;;;;;;;;;9.40;9.40;;;;;22.81;25.45;99974.50;5065199;28;10244;-76
2022/05/09 10:40:50;;;;;;;;;9.20;9.20;;;;;23.27;24.57;99973.34;5050143;28;8933;-73
2022/05/09 10:43:27;;;;;;;;;8.00;6.00;;;;;23.70;24.19;99975.75;5068350;28;8852;-72
2022/05/09 10:45:56;;;;;;;;;11.80;10.20;;;;;23.96;23.84;99973.69;5067027;28;9620;-75
2022/05/09 10:48:34;;;;;;;;;8.60;7.40;;;;;24.28;22.56;99972.94;5067525;28;8856;-71
2022/05/09 10:51:11;;;;;;;;;9.00;7.60;;;;;24.62;22.86;99973.03;5051857;28;8831;-76
2022/05/09 10:54:01;;;;;;;;;5.80;4.80;;;;;24.97;21.53;99967.66;5050062;28;8877;-80
2022/05/09 10:56:38;;;;;;;;;8.20;8.00;;;;;25.30;20.87;99962.31;5039180;28;8929;-73
2022/05/09 10:59:10;;;;;;;;;9.80;9.60;;;;;25.47;20.47;99961.41;5067931;28;8966;-75
2022/05/09 11:01:44;;;;;;;;;5.20;5.20;;;;;25.77;20.72;99955.28;5063350;28;8823;-74
2022/05/09 11:04:14;;;;;;;;;8.60;6.60;;;;;26.00;19.75;99956.66;5068748;28;8883;-74
2022/05/09 11:06:53;;;;;;;;;8.60;8.20;;;;;26.32;20.05;99957.44;5062935;28;8854;-76
2022/05/09 11:09:45;;;;;;;;;7.20;6.00;;;;;26.56;18.94;99956.91;5049963;28;8859;-76
2022/05/09 11:12:31;;;;;;;;;6.80;6.80;;;;;26.80;19.44;99952.75;5049846;28;8869;-77
2022/05/09 11:15:13;;;;;;;;;7.60;7.20;;;;;27.02;18.20;99951.47;5068913;28;8894;-78
2022/05/09 11:18:07;;;;;;;;;13.40;11.60;;;;;27.25;18.61;99951.81;5071895;28;8844;-78
2022/05/09 11:20:41;;;;;;;;;6.00;6.00;;;;;27.51;18.51;99945.69;5008880;28;8880;-76
2022/05/09 11:23:28;;;;;;;;;8.40;7.20;;;;;27.80;17.54;99946.44;4992499;28;8893;-79
2022/05/09 11:26:11;;;;;;;;;7.60;7.40;;;;;28.00;17.69;99942.50;5008034;28;8881;-79
2022/05/09 11:29:17;;;;;;;;;7.00;6.20;;;;;28.04;16.80;99937.78;4991896;28;8872;-78
2022/05/09 11:31:59;;;;;;;;;7.40;6.00;;;;;27.99;17.05;99931.88;5005085;28;9112;-76
2022/05/09 11:34:46;;;;;;;;;10.20;8.60;;;;;28.16;17.40;99936.09;4994319;28;8877;-77
2022/05/09 11:37:26;;;;;;;;;14.20;11.20;;;;;28.44;17.39;99934.22;5007363;28;8884;-77
2022/05/09 11:40:08;;;;;;;;;1.20;1.00;;;;;28.46;17.44;99927.78;4992297;28;8861;-77
2022/05/09 11:45:49;;;;;;;;;8.40;7.60;;;;;29.06;16.71;99920.06;4955994;28;8866;-78
2022/05/09 11:48:33;;;;;;;;;8.40;8.40;;;;;29.32;17.14;99916.41;4972471;28;8855;-78
2022/05/09 11:51:16;;;;;;;;;7.00;6.80;;;;;29.51;16.89;99917.75;4945427;28;8924;-77
2022/05/09 11:53:50;;;;;;;;;6.80;6.80;;;;;29.83;16.80;99915.38;4960417;28;8949;-76
2022/05/09 11:56:20;;;;;;;;;7.60;7.00;;;;;30.06;16.97;99912.78;4966318;28;8886;-76
2022/05/09 11:58:49;;;;;;;;;6.80;6.80;;;;;30.17;16.83;99907.44;5046091;28;8966;-79
2022/05/09 12:01:59;;;;;;;;;7.40;7.00;;;;;30.23;16.75;99906.97;5051688;28;8950;-78
2022/05/09 12:04:30;;;;;;;;;7.40;7.40;;;;;30.34;16.56;99907.97;4966490;28;8864;-78
2022/05/09 12:06:59;;;;;;;;;8.20;6.80;;;;;30.38;16.64;99904.06;4971182;28;8994;-70
2022/05/09 12:09:55;;;;;;;;;10.80;9.80;;;;;30.59;17.17;99902.41;4970002;28;8978;-75
2022/05/09 12:12:49;;;;;;;;;8.80;8.00;;;;;30.98;16.26;99896.69;4892394;29;8861;-68